sensor_id;sensor_type;location;lat;lon;timestamp;P1;durP1;ratioP1;P2;durP2;ratioP2
25649;SDS011;13505;45.196;5.696;2023-07-29T04:32:03;9.00;;;6.10;;
25649;SDS011;13505;45.196;5.696;2023-07-29T04:36:53;7.78;;;5.38;;
25649;SDS011;13505;45.196;5.696;2023-07-29T04:41:44;7.83;;;5.23;;
25649;SDS011;13505;45.196;5.696;2023-07-29T04:46:35;7.63;;;5.60;;
25649;SDS011;13505;45.196;5.696;2023-07-29T04:51:25;7.18;;;4.88;;
25649;SDS011;13505;45.196;5.696;2023-07-29T04:56:16;7.18;;;4.78;;
25649;SDS011;13505;45.196;5.696;2023-07-29T05:01:06;8.93;;;6.13;;
25649;SDS011;13505;45.196;5.696;2023-07-29T05:05:57;9.68;;;5.45;;
25649;SDS011;13505;45.196;5.696;2023-07-29T05:10:49;9.30;;;5.75;;
25649;SDS011;13505;45.196;5.696;2023-07-29T05:15:40;9.80;;;6.22;;
25649;SDS011;13505;45.196;5.696;2023-07-29T05:20:31;10.90;;;6.47;;
25649;SDS011;13505;45.196;5.696;2023-07-29T05:25:21;14.55;;;7.10;;
25649;SDS011;13505;45.196;5.696;2023-07-29T05:30:11;10.68;;;6.50;;
25649;SDS011;13505;45.196;5.696;2023-07-29T05:35:02;8.00;;;5.78;;
25649;SDS011;13505;45.196;5.696;2023-07-29T05:39:52;8.68;;;5.97;;
25649;SDS011;13505;45.196;5.696;2023-07-29T05:44:42;8.95;;;5.65;;
25649;SDS011;13505;45.196;5.696;2023-07-29T05:49:32;7.57;;;5.47;;
25649;SDS011;13505;45.196;5.696;2023-07-29T05:54:23;8.88;;;5.50;;
25649;SDS011;13505;45.196;5.696;2023-07-29T05:59:13;10.27;;;5.40;;
25649;SDS011;13505;45.196;5.696;2023-07-29T06:04:04;10.45;;;5.82;;
25649;SDS011;13505;45.196;5.696;2023-07-29T06:08:54;8.35;;;5.45;;
25649;SDS011;13505;45.196;5.696;2023-07-29T06:13:45;11.85;;;5.55;;
25649;SDS011;13505;45.196;5.696;2023-07-29T06:18:37;9.32;;;5.68;;
25649;SDS011;13505;45.196;5.696;2023-07-29T06:23:27;9.35;;;5.93;;
25649;SDS011;13505;45.196;5.696;2023-07-29T06:28:18;9.05;;;5.85;;
25649;SDS011;13505;45.196;5.696;2023-07-29T06:33:08;10.30;;;6.13;;
25649;SDS011;13505;45.196;5.696;2023-07-29T06:37:59;9.77;;;6.75;;
25649;SDS011;13505;45.196;5.696;2023-07-29T06:42:49;12.15;;;5.70;;
25649;SDS011;13505;45.196;5.696;2023-07-29T06:47:40;12.03;;;6.33;;
25649;SDS011;13505;45.196;5.696;2023-07-29T06:52:30;8.93;;;6.43;;
25649;SDS011;13505;45.196;5.696;2023-07-29T06:57:20;8.93;;;6.40;;
25649;SDS011;13505;45.196;5.696;2023-07-29T07:02:11;10.20;;;6.68;;
25649;SDS011;13505;45.196;5.696;2023-07-29T07:07:01;7.70;;;5.80;;
25649;SDS011;13505;45.196;5.696;2023-07-29T07:11:51;8.52;;;6.07;;
25649;SDS011;13505;45.196;5.696;2023-07-29T07:16:42;7.22;;;5.72;;
25649;SDS011;13505;45.196;5.696;2023-07-29T07:21:32;14.52;;;6.72;;
25649;SDS011;13505;45.196;5.696;2023-07-29T07:26:23;8.13;;;6.07;;
25649;SDS011;13505;45.196;5.696;2023-07-29T07:31:13;10.00;;;5.68;;
25649;SDS011;13505;45.196;5.696;2023-07-29T07:36:04;7.83;;;5.60;;
25649;SDS011;13505;45.196;5.696;2023-07-29T07:40:54;11.40;;;6.40;;
25649;SDS011;13505;45.196;5.696;2023-07-29T07:45:46;10.85;;;6.35;;
25649;SDS011;13505;45.196;5.696;2023-07-29T07:50:37;7.72;;;5.80;;
25649;SDS011;13505;45.196;5.696;2023-07-29T07:55:27;10.97;;;6.07;;
25649;SDS011;13505;45.196;5.696;2023-07-29T08:00:17;7.55;;;5.15;;
25649;SDS011;13505;45.196;5.696;2023-07-29T08:05:09;8.02;;;5.40;;
25649;SDS011;13505;45.196;5.696;2023-07-29T08:09:59;6.57;;;4.68;;
25649;SDS011;13505;45.196;5.696;2023-07-29T08:14:50;6.97;;;4.93;;
25649;SDS011;13505;45.196;5.696;2023-07-29T08:19:40;6.55;;;5.05;;
25649;SDS011;13505;45.196;5.696;2023-07-29T08:24:30;7.75;;;5.32;;
25649;SDS011;13505;45.196;5.696;2023-07-29T08:29:21;7.40;;;5.30;;
25649;SDS011;13505;45.196;5.696;2023-07-29T08:34:11;8.63;;;5.40;;
25649;SDS011;13505;45.196;5.696;2023-07-29T08:39:01;9.93;;;5.20;;
25649;SDS011;13505;45.196;5.696;2023-07-29T08:48:49;8.00;;;5.10;;
25649;SDS011;13505;45.196;5.696;2023-07-29T08:53:40;6.82;;;5.38;;
25649;SDS011;13505;45.196;5.696;2023-07-29T08:58:30;8.83;;;5.97;;
25649;SDS011;13505;45.196;5.696;2023-07-29T09:03:21;9.60;;;6.65;;
25649;SDS011;13505;45.196;5.696;2023-07-29T09:08:11;10.35;;;7.15;;
25649;SDS011;13505;45.196;5.696;2023-07-29T09:13:02;7.03;;;6.33;;
25649;SDS011;13505;45.196;5.696;2023-07-29T09:17:53;7.95;;;7.00;;
25649;SDS011;13505;45.196;5.696;2023-07-29T09:22:43;10.70;;;6.43;;
25649;SDS011;13505;45.196;5.696;2023-07-29T09:27:34;10.23;;;7.00;;
25649;SDS011;13505;45.196;5.696;2023-07-29T09:32:28;9.23;;;7.18;;
25649;SDS011;13505;45.196;5.696;2023-07-29T09:37:21;9.65;;;6.93;;
25649;SDS011;13505;45.196;5.696;2023-07-29T09:42:21;11.82;;;7.13;;
25649;SDS011;13505;45.196;5.696;2023-07-29T09:47:23;8.75;;;6.55;;
25649;SDS011;13505;45.196;5.696;2023-07-29T09:52:22;7.07;;;5.80;;
25649;SDS011;13505;45.196;5.696;2023-07-29T09:57:16;5.80;;;5.20;;
25649;SDS011;13505;45.196;5.696;2023-07-29T10:02:09;6.07;;;4.78;;
25649;SDS011;13505;45.196;5.696;2023-07-29T10:07:05;7.10;;;4.90;;
25649;SDS011;13505;45.196;5.696;2023-07-29T10:11:57;6.68;;;4.82;;
25649;SDS011;13505;45.196;5.696;2023-07-29T10:16:47;6.03;;;4.40;;
25649;SDS011;13505;45.196;5.696;2023-07-29T10:21:39;8.77;;;4.82;;
25649;SDS011;13505;45.196;5.696;2023-07-29T10:26:34;6.28;;;4.80;;
25649;SDS011;13505;45.196;5.696;2023-07-29T10:31:28;6.18;;;4.57;;
25649;SDS011;13505;45.196;5.696;2023-07-29T10:36:19;6.90;;;5.05;;
25649;SDS011;13505;45.196;5.696;2023-07-29T10:41:10;4.97;;;4.57;;
25649;SDS011;13505;45.196;5.696;2023-07-29T10:46:16;9.30;;;4.63;;
25649;SDS011;13505;45.196;5.696;2023-07-29T10:56:12;4.50;;;4.05;;
25649;SDS011;13505;45.196;5.696;2023-07-29T11:01:03;6.43;;;4.20;;
25649;SDS011;13505;45.196;5.696;2023-07-29T11:06:04;5.00;;;4.00;;
25649;SDS011;13505;45.196;5.696;2023-07-29T11:11:01;6.03;;;4.53;;
25649;SDS011;13505;45.196;5.696;2023-07-29T11:15:58;4.93;;;4.38;;
25649;SDS011;13505;45.196;5.696;2023-07-29T11:20:49;6.60;;;3.83;;
25649;SDS011;13505;45.196;5.696;2023-07-29T11:25:39;5.05;;;4.55;;
25649;SDS011;13505;45.196;5.696;2023-07-29T11:30:30;5.20;;;4.30;;
25649;SDS011;13505;45.196;5.696;2023-07-29T11:35:21;5.93;;;4.20;;
25649;SDS011;13505;45.196;5.696;2023-07-29T11:40:15;5.25;;;4.47;;
25649;SDS011;13505;45.196;5.696;2023-07-29T11:45:10;6.55;;;4.20;;
25649;SDS011;13505;45.196;5.696;2023-07-29T11:50:01;5.70;;;4.07;;
25649;SDS011;13505;45.196;5.696;2023-07-29T11:54:51;5.22;;;3.80;;
25649;SDS011;13505;45.196;5.696;2023-07-29T11:59:43;7.47;;;4.53;;
25649;SDS011;13505;45.196;5.696;2023-07-29T12:04:33;5.78;;;4.57;;
25649;SDS011;13505;45.196;5.696;2023-07-29T12:09:25;5.05;;;4.20;;
25649;SDS011;13505;45.196;5.696;2023-07-29T12:14:17;4.70;;;4.20;;
25649;SDS011;13505;45.196;5.696;2023-07-29T12:19:07;5.07;;;4.57;;
25649;SDS011;13505;45.196;5.696;2023-07-29T12:23:57;6.60;;;4.73;;
25649;SDS011;13505;45.196;5.696;2023-07-29T12:28:48;5.15;;;4.65;;
25649;SDS011;13505;45.196;5.696;2023-07-29T12:33:38;5.23;;;4.73;;
25649;SDS011;13505;45.196;5.696;2023-07-29T12:38:29;7.55;;;4.55;;
25649;SDS011;13505;45.196;5.696;2023-07-29T12:43:19;6.40;;;4.53;;
25649;SDS011;13505;45.196;5.696;2023-07-29T12:48:10;5.38;;;4.40;;
25649;SDS011;13505;45.196;5.696;2023-07-29T12:53:01;7.97;;;5.05;;
25649;SDS011;13505;45.196;5.696;2023-07-29T12:57:51;5.67;;;4.80;;
25649;SDS011;13505;45.196;5.696;2023-07-29T13:02:41;6.13;;;5.50;;
25649;SDS011;13505;45.196;5.696;2023-07-29T13:07:32;7.03;;;5.93;;
25649;SDS011;13505;45.196;5.696;2023-07-29T13:12:22;6.67;;;5.97;;
25649;SDS011;13505;45.196;5.696;2023-07-29T13:17:12;7.67;;;6.23;;
25649;SDS011;13505;45.196;5.696;2023-07-29T13:22:03;5.80;;;5.20;;
25649;SDS011;13505;45.196;5.696;2023-07-29T13:26:53;9.65;;;5.72;;
25649;SDS011;13505;45.196;5.696;2023-07-29T13:31:44;13.77;;;5.68;;
25649;SDS011;13505;45.196;5.696;2023-07-29T13:36:34;7.97;;;5.45;;
25649;SDS011;13505;45.196;5.696;2023-07-29T13:41:24;6.70;;;5.60;;
25649;SDS011;13505;45.196;5.696;2023-07-29T13:46:14;9.70;;;5.47;;
25649;SDS011;13505;45.196;5.696;2023-07-29T13:51:05;8.10;;;5.77;;
25649;SDS011;13505;45.196;5.696;2023-07-29T13:55:55;8.10;;;5.30;;
25649;SDS011;13505;45.196;5.696;2023-07-29T14:00:45;8.97;;;5.27;;
25649;SDS011;13505;45.196;5.696;2023-07-29T14:05:36;7.05;;;4.97;;
25649;SDS011;13505;45.196;5.696;2023-07-29T14:10:26;6.88;;;5.03;;
25649;SDS011;13505;45.196;5.696;2023-07-29T14:15:16;7.93;;;5.40;;
25649;SDS011;13505;45.196;5.696;2023-07-29T14:20:07;8.10;;;5.22;;
25649;SDS011;13505;45.196;5.696;2023-07-29T14:24:58;7.80;;;5.00;;
25649;SDS011;13505;45.196;5.696;2023-07-29T14:29:49;6.50;;;5.10;;
25649;SDS011;13505;45.196;5.696;2023-07-29T14:34:39;6.00;;;4.90;;
25649;SDS011;13505;45.196;5.696;2023-07-29T14:39:29;7.37;;;4.90;;
25649;SDS011;13505;45.196;5.696;2023-07-29T14:44:20;7.90;;;4.90;;
25649;SDS011;13505;45.196;5.696;2023-07-29T14:49:10;6.33;;;4.90;;
25649;SDS011;13505;45.196;5.696;2023-07-29T14:54:00;7.20;;;5.05;;
25649;SDS011;13505;45.196;5.696;2023-07-29T14:58:50;5.87;;;5.27;;
25649;SDS011;13505;45.196;5.696;2023-07-29T15:03:41;9.40;;;5.30;;
25649;SDS011;13505;45.196;5.696;2023-07-29T15:08:31;8.87;;;4.80;;
25649;SDS011;13505;45.196;5.696;2023-07-29T15:13:22;7.57;;;5.00;;
25649;SDS011;13505;45.196;5.696;2023-07-29T15:18:12;5.63;;;4.95;;
25649;SDS011;13505;45.196;5.696;2023-07-29T15:23:02;9.60;;;5.30;;
25649;SDS011;13505;45.196;5.696;2023-07-29T15:27:53;7.55;;;5.32;;
25649;SDS011;13505;45.196;5.696;2023-07-29T15:32:43;6.53;;;4.50;;
25649;SDS011;13505;45.196;5.696;2023-07-29T15:37:34;6.85;;;5.30;;
25649;SDS011;13505;45.196;5.696;2023-07-29T15:42:25;7.18;;;5.20;;
25649;SDS011;13505;45.196;5.696;2023-07-29T15:47:15;5.20;;;4.43;;
25649;SDS011;13505;45.196;5.696;2023-07-29T15:52:08;6.10;;;5.10;;
25649;SDS011;13505;45.196;5.696;2023-07-29T15:57:01;7.88;;;4.70;;
25649;SDS011;13505;45.196;5.696;2023-07-29T16:01:51;7.03;;;5.22;;
25649;SDS011;13505;45.196;5.696;2023-07-29T16:06:41;6.63;;;4.80;;
25649;SDS011;13505;45.196;5.696;2023-07-29T16:11:32;6.20;;;5.00;;
25649;SDS011;13505;45.196;5.696;2023-07-29T16:16:23;6.63;;;4.60;;
25649;SDS011;13505;45.196;5.696;2023-07-29T16:21:13;7.43;;;4.60;;
25649;SDS011;13505;45.196;5.696;2023-07-29T16:26:04;7.40;;;4.80;;
25649;SDS011;13505;45.196;5.696;2023-07-29T16:30:54;7.83;;;5.07;;
25649;SDS011;13505;45.196;5.696;2023-07-29T16:35:44;5.80;;;5.00;;
25649;SDS011;13505;45.196;5.696;2023-07-29T16:40:35;5.30;;;4.73;;
25649;SDS011;13505;45.196;5.696;2023-07-29T16:45:25;6.43;;;5.17;;
25649;SDS011;13505;45.196;5.696;2023-07-29T16:50:17;6.25;;;4.90;;
25649;SDS011;13505;45.196;5.696;2023-07-29T16:55:07;8.10;;;5.68;;
25649;SDS011;13505;45.196;5.696;2023-07-29T16:59:58;9.55;;;5.20;;
25649;SDS011;13505;45.196;5.696;2023-07-29T17:04:49;7.28;;;5.38;;
25649;SDS011;13505;45.196;5.696;2023-07-29T17:09:39;8.07;;;5.15;;
25649;SDS011;13505;45.196;5.696;2023-07-29T17:14:29;8.50;;;5.53;;
25649;SDS011;13505;45.196;5.696;2023-07-29T17:19:20;11.00;;;6.33;;
25649;SDS011;13505;45.196;5.696;2023-07-29T17:24:10;9.47;;;5.70;;
25649;SDS011;13505;45.196;5.696;2023-07-29T17:29:00;6.35;;;4.60;;
25649;SDS011;13505;45.196;5.696;2023-07-29T17:33:51;9.35;;;5.18;;
25649;SDS011;13505;45.196;5.696;2023-07-29T17:38:41;6.80;;;4.90;;
25649;SDS011;13505;45.196;5.696;2023-07-29T17:43:31;5.73;;;4.00;;
25649;SDS011;13505;45.196;5.696;2023-07-29T17:48:22;7.00;;;4.78;;
25649;SDS011;13505;45.196;5.696;2023-07-29T17:53:12;8.00;;;5.50;;
25649;SDS011;13505;45.196;5.696;2023-07-29T17:58:02;8.30;;;5.10;;
25649;SDS011;13505;45.196;5.696;2023-07-29T18:02:54;10.00;;;5.85;;
25649;SDS011;13505;45.196;5.696;2023-07-29T18:07:45;8.88;;;5.32;;
25649;SDS011;13505;45.196;5.696;2023-07-29T18:12:36;10.18;;;6.40;;
25649;SDS011;13505;45.196;5.696;2023-07-29T18:17:28;11.10;;;7.03;;
25649;SDS011;13505;45.196;5.696;2023-07-29T18:22:18;8.70;;;5.90;;
25649;SDS011;13505;45.196;5.696;2023-07-29T18:27:09;16.23;;;7.60;;
25649;SDS011;13505;45.196;5.696;2023-07-29T18:32:00;19.58;;;7.82;;
25649;SDS011;13505;45.196;5.696;2023-07-29T18:36:51;12.32;;;6.93;;
25649;SDS011;13505;45.196;5.696;2023-07-29T18:41:41;11.13;;;5.90;;
25649;SDS011;13505;45.196;5.696;2023-07-29T18:46:32;9.82;;;6.03;;
25649;SDS011;13505;45.196;5.696;2023-07-29T18:51:23;8.23;;;5.75;;
25649;SDS011;13505;45.196;5.696;2023-07-29T18:56:13;8.93;;;5.90;;
25649;SDS011;13505;45.196;5.696;2023-07-29T19:01:03;10.90;;;7.07;;
25649;SDS011;13505;45.196;5.696;2023-07-29T19:05:54;10.35;;;6.40;;
25649;SDS011;13505;45.196;5.696;2023-07-29T19:10:46;8.25;;;5.95;;
25649;SDS011;13505;45.196;5.696;2023-07-29T19:15:36;7.38;;;6.15;;
25649;SDS011;13505;45.196;5.696;2023-07-29T19:20:28;10.15;;;7.10;;
25649;SDS011;13505;45.196;5.696;2023-07-29T19:25:20;12.10;;;6.55;;
25649;SDS011;13505;45.196;5.696;2023-07-29T19:30:10;11.43;;;7.40;;
25649;SDS011;13505;45.196;5.696;2023-07-29T19:35:00;15.90;;;7.47;;
25649;SDS011;13505;45.196;5.696;2023-07-29T19:39:51;12.32;;;7.13;;
25649;SDS011;13505;45.196;5.696;2023-07-29T19:44:41;9.40;;;6.93;;
25649;SDS011;13505;45.196;5.696;2023-07-29T19:49:32;10.82;;;7.55;;
25649;SDS011;13505;45.196;5.696;2023-07-29T19:54:22;15.23;;;9.48;;
25649;SDS011;13505;45.196;5.696;2023-07-29T19:59:12;15.48;;;8.70;;
25649;SDS011;13505;45.196;5.696;2023-07-29T20:04:02;10.75;;;7.35;;
25649;SDS011;13505;45.196;5.696;2023-07-29T20:08:53;13.52;;;7.80;;
25649;SDS011;13505;45.196;5.696;2023-07-29T20:13:43;11.30;;;7.22;;
25649;SDS011;13505;45.196;5.696;2023-07-29T20:18:33;11.50;;;6.90;;
25649;SDS011;13505;45.196;5.696;2023-07-29T20:23:24;12.93;;;8.03;;
25649;SDS011;13505;45.196;5.696;2023-07-29T20:28:14;9.18;;;4.85;;
25649;SDS011;13505;45.196;5.696;2023-07-29T20:33:05;9.25;;;5.40;;
25649;SDS011;13505;45.196;5.696;2023-07-29T20:37:57;7.57;;;4.68;;
25649;SDS011;13505;45.196;5.696;2023-07-29T20:42:47;5.38;;;4.10;;
25649;SDS011;13505;45.196;5.696;2023-07-29T20:47:37;4.38;;;3.80;;
25649;SDS011;13505;45.196;5.696;2023-07-29T20:52:28;5.00;;;4.10;;
25649;SDS011;13505;45.196;5.696;2023-07-29T20:57:18;8.37;;;4.27;;
25649;SDS011;13505;45.196;5.696;2023-07-29T21:02:08;4.65;;;3.60;;
25649;SDS011;13505;45.196;5.696;2023-07-29T21:06:59;5.40;;;3.53;;
25649;SDS011;13505;45.196;5.696;2023-07-29T21:11:50;5.20;;;3.30;;
25649;SDS011;13505;45.196;5.696;2023-07-29T21:16:41;4.65;;;2.60;;
25649;SDS011;13505;45.196;5.696;2023-07-29T21:21:32;3.42;;;2.60;;
25649;SDS011;13505;45.196;5.696;2023-07-29T21:26:22;4.37;;;2.80;;
25649;SDS011;13505;45.196;5.696;2023-07-29T21:31:12;3.50;;;2.83;;
25649;SDS011;13505;45.196;5.696;2023-07-29T21:36:03;5.63;;;2.88;;
25649;SDS011;13505;45.196;5.696;2023-07-29T21:40:53;3.88;;;2.60;;
25649;SDS011;13505;45.196;5.696;2023-07-29T21:45:44;3.70;;;2.67;;
25649;SDS011;13505;45.196;5.696;2023-07-29T21:50:35;6.05;;;2.88;;
25649;SDS011;13505;45.196;5.696;2023-07-29T21:55:25;3.77;;;2.70;;
